createdAt,value
2018-12-04T00:00:57.048Z,69.50
2018-12-04T00:03:26.405Z,69.20
2018-12-04T00:05:55.791Z,69.60
2018-12-04T00:08:25.167Z,69.30
2018-12-04T00:11:25.096Z,68.00
2018-12-04T00:13:53.311Z,68.60
2018-12-04T00:16:21.509Z,68.10
2018-12-04T00:18:49.762Z,68.60
2018-12-04T00:21:18.002Z,68.10
2018-12-04T00:23:46.194Z,67.80
2018-12-04T00:26:14.448Z,68.90
2018-12-04T00:28:42.652Z,68.20
2018-12-04T00:31:10.860Z,67.70
2018-12-04T00:33:39.088Z,68.30
2018-12-04T00:36:07.345Z,68.20
2018-12-04T00:38:35.550Z,76.70
2018-12-04T00:41:03.768Z,66.90
2018-12-04T00:43:31.974Z,68.50
2018-12-04T00:46:00.222Z,77.50
2018-12-04T00:48:28.508Z,69.00
2018-12-04T00:53:24.673Z,66.40
2018-12-04T00:55:52.888Z,66.90
2018-12-04T00:58:21.199Z,67.50
2018-12-04T01:00:49.489Z,67.80
2018-12-04T01:03:17.716Z,67.50
2018-12-04T01:05:45.945Z,67.90
2018-12-04T01:08:14.176Z,67.40
2018-12-04T01:10:42.381Z,67.20
2018-12-04T01:13:10.660Z,67.40
2018-12-04T01:15:38.859Z,67.60
2018-12-04T01:18:13.794Z,67.30
2018-12-04T01:20:41.997Z,67.60
2018-12-04T01:23:10.245Z,68.70
2018-12-04T01:25:38.455Z,68.40
2018-12-04T01:28:06.686Z,67.70
2018-12-04T01:30:34.900Z,67.60
2018-12-04T01:33:03.122Z,67.40
2018-12-04T01:35:31.316Z,67.40
2018-12-04T01:37:59.523Z,66.80
2018-12-04T01:40:27.752Z,67.00
2018-12-04T01:42:55.987Z,77.90
2018-12-04T01:45:24.190Z,77.90
2018-12-04T01:47:52.472Z,65.70
2018-12-04T01:50:20.681Z,65.70
2018-12-04T01:52:48.958Z,66.30
2018-12-04T01:55:17.163Z,67.70
2018-12-04T01:57:45.399Z,67.20
2018-12-04T02:00:13.650Z,66.50
2018-12-04T02:02:41.869Z,66.80
2018-12-04T02:05:10.095Z,66.90
2018-12-04T02:07:38.298Z,67.00
2018-12-04T02:10:06.477Z,67.10
2018-12-04T02:12:34.629Z,66.10
2018-12-04T02:15:02.784Z,66.60
2018-12-04T02:17:31.041Z,66.00
2018-12-04T02:19:59.226Z,66.80
2018-12-04T02:22:27.373Z,66.00
2018-12-04T02:24:55.554Z,66.20
2018-12-04T02:27:23.708Z,65.90
2018-12-04T02:29:58.255Z,65.60
2018-12-04T02:32:26.548Z,66.50
2018-12-04T02:34:54.714Z,65.50
2018-12-04T02:37:22.897Z,66.20
2018-12-04T02:39:51.079Z,65.60
2018-12-04T02:42:23.570Z,65.50
2018-12-04T02:44:51.808Z,64.90
2018-12-04T02:47:19.954Z,65.70
2018-12-04T02:49:48.116Z,66.90
2018-12-04T02:52:16.298Z,75.00
2018-12-04T02:57:12.401Z,79.20
2018-12-04T02:59:40.553Z,89.20
2018-12-04T03:02:08.722Z,87.80
2018-12-04T03:04:36.883Z,70.90
2018-12-04T03:07:05.125Z,72.30
2018-12-04T03:09:36.391Z,74.90
2018-12-04T03:12:04.634Z,76.40
2018-12-04T03:14:32.863Z,77.10
2018-12-04T03:17:01.082Z,77.30
2018-12-04T03:19:29.419Z,77.40
2018-12-04T03:21:57.608Z,77.20
2018-12-04T03:24:25.890Z,77.10
2018-12-04T03:26:54.199Z,77.90
2018-12-04T03:29:28.850Z,78.10
2018-12-04T03:31:57.075Z,77.80
2018-12-04T03:34:25.350Z,78.00
2018-12-04T03:36:53.594Z,78.20
2018-12-04T03:39:21.788Z,77.60
2018-12-04T03:41:50.061Z,77.50
2018-12-04T03:44:18.353Z,77.10
2018-12-04T03:46:46.626Z,76.80
2018-12-04T03:49:14.898Z,77.00
2018-12-04T03:51:43.133Z,75.70
2018-12-04T03:54:11.368Z,81.00
2018-12-04T03:56:39.594Z,76.10
2018-12-04T03:59:07.885Z,76.80
2018-12-04T04:01:36.135Z,76.50
2018-12-04T04:04:04.345Z,75.50
2018-12-04T04:06:32.607Z,75.30
2018-12-04T04:09:00.791Z,74.90
2018-12-04T04:11:28.945Z,75.20
2018-12-04T04:13:57.099Z,76.50
2018-12-04T04:16:25.291Z,76.50
2018-12-04T04:18:53.442Z,77.00
2018-12-04T04:21:21.605Z,76.20
2018-12-04T04:23:49.765Z,75.60
2018-12-04T04:26:17.930Z,75.40
2018-12-04T04:28:46.090Z,75.50
2018-12-04T04:31:14.253Z,74.70
2018-12-04T04:33:42.476Z,74.60
2018-12-04T04:36:10.648Z,74.50
2018-12-04T04:38:38.905Z,75.10
2018-12-04T04:41:07.061Z,74.60
2018-12-04T04:43:35.332Z,74.60
2018-12-04T04:46:03.475Z,74.70
2018-12-04T04:48:31.630Z,75.20
2018-12-04T04:50:59.886Z,73.50
2018-12-04T04:53:28.175Z,83.50
2018-12-04T04:55:56.362Z,73.60
2018-12-04T05:00:52.433Z,85.00
2018-12-04T05:03:20.623Z,74.70
2018-12-04T05:05:48.834Z,75.20
2018-12-04T05:08:17.428Z,75.00
2018-12-04T05:10:45.634Z,74.80
2018-12-04T05:13:13.939Z,74.40
2018-12-04T05:15:42.153Z,74.00
2018-12-04T05:18:10.458Z,73.70
2018-12-04T05:20:38.670Z,73.40
2018-12-04T05:23:06.882Z,74.00
2018-12-04T05:25:35.075Z,74.30
2018-12-04T05:28:03.314Z,75.20
2018-12-04T05:30:31.529Z,76.30
2018-12-04T05:32:59.766Z,77.10
2018-12-04T05:35:27.978Z,78.40
2018-12-04T05:37:56.265Z,79.80
2018-12-04T05:40:24.465Z,80.00
2018-12-04T05:42:52.708Z,81.00
2018-12-04T05:45:20.977Z,81.60
2018-12-04T05:47:49.213Z,81.70
2018-12-04T05:50:17.438Z,82.10
2018-12-04T05:52:52.382Z,92.80
2018-12-04T05:55:20.625Z,80.00
2018-12-04T05:57:48.825Z,83.60
2018-12-04T06:00:17.044Z,92.70
2018-12-04T06:02:45.274Z,92.20
2018-12-04T06:05:13.485Z,84.50
2018-12-04T06:07:41.688Z,85.10
2018-12-04T06:10:09.873Z,86.10
2018-12-04T06:12:38.045Z,87.00
2018-12-04T06:15:06.556Z,87.30
2018-12-04T06:17:34.729Z,88.10
2018-12-04T06:20:02.933Z,88.40
2018-12-04T06:22:31.081Z,88.70
2018-12-04T06:24:59.328Z,90.00
2018-12-04T06:27:27.503Z,89.30
2018-12-04T06:29:55.657Z,88.70
2018-12-04T06:32:23.821Z,89.60
2018-12-04T06:34:51.998Z,89.40
2018-12-04T06:37:20.161Z,88.50
2018-12-04T06:39:48.378Z,88.20
2018-12-04T06:42:16.643Z,89.20
2018-12-04T06:44:46.844Z,89.20
2018-12-04T06:47:14.950Z,89.90
2018-12-04T06:49:43.116Z,90.40
2018-12-04T06:52:11.352Z,91.00
2018-12-04T06:54:39.499Z,90.70
2018-12-04T06:57:07.672Z,90.80
2018-12-04T06:59:38.930Z,95.30
2018-12-04T07:02:07.118Z,91.20
2018-12-04T07:04:35.257Z,98.30
2018-12-04T07:07:03.485Z,99.90
2018-12-04T07:09:31.706Z,99.00
2018-12-04T07:12:02.459Z,94.30
2018-12-04T07:14:30.211Z,97.20
2018-12-04T07:16:58.457Z,93.80
2018-12-04T07:19:26.661Z,93.10
2018-12-04T07:21:54.854Z,93.40
2018-12-04T07:24:23.082Z,94.60
2018-12-04T07:26:51.345Z,95.60
2018-12-04T07:29:19.646Z,96.00
2018-12-04T07:31:47.912Z,96.40
2018-12-04T07:34:16.235Z,95.90
2018-12-04T07:36:44.466Z,95.70
2018-12-04T07:39:12.673Z,95.50
2018-12-04T07:41:40.908Z,95.30
2018-12-04T07:44:09.116Z,95.90
2018-12-04T07:46:37.363Z,95.90
2018-12-04T07:49:05.633Z,99.90
2018-12-04T07:51:33.828Z,96.10
2018-12-04T07:58:57.973Z,96.10
2018-12-04T08:01:26.179Z,96.60
2018-12-04T08:03:54.377Z,96.20
2018-12-04T08:06:22.650Z,95.90
2018-12-04T08:08:50.856Z,95.80
2018-12-04T08:11:19.070Z,94.40
2018-12-04T08:13:47.365Z,95.00
2018-12-04T08:16:15.669Z,95.10
2018-12-04T08:18:43.877Z,95.10
2018-12-04T08:21:12.117Z,94.60
2018-12-04T08:23:40.321Z,94.40
2018-12-04T08:26:08.588Z,94.00
2018-12-04T08:28:36.891Z,94.30
2018-12-04T08:31:05.102Z,94.00
2018-12-04T08:33:33.330Z,94.40
2018-12-04T08:36:01.518Z,94.30
2018-12-04T08:38:29.750Z,94.60
2018-12-04T08:40:57.957Z,94.30
2018-12-04T08:43:26.157Z,94.50
2018-12-04T08:45:54.350Z,94.10
2018-12-04T08:48:22.550Z,99.90
2018-12-04T08:50:50.758Z,93.70
2018-12-04T08:55:46.935Z,94.00
2018-12-04T08:58:15.159Z,94.00
2018-12-04T09:00:43.381Z,94.30
2018-12-04T09:03:11.742Z,94.50
2018-12-04T09:05:39.968Z,94.60
2018-12-04T09:08:09.473Z,93.90
2018-12-04T09:10:37.878Z,94.20
2018-12-04T09:13:06.074Z,94.20
2018-12-04T09:15:34.282Z,94.70
2018-12-04T09:18:02.472Z,95.00
2018-12-04T09:20:30.630Z,94.70
2018-12-04T09:22:58.794Z,94.70
2018-12-04T09:25:27.004Z,94.80
2018-12-04T09:27:55.875Z,94.80
2018-12-04T09:30:24.294Z,94.90
2018-12-04T09:32:52.608Z,95.20
2018-12-04T09:35:20.793Z,95.10
2018-12-04T09:37:48.987Z,94.50
2018-12-04T09:40:17.178Z,94.80
2018-12-04T09:42:45.347Z,94.40
2018-12-04T09:45:13.513Z,94.60
2018-12-04T09:47:41.657Z,99.90
2018-12-04T09:50:09.834Z,94.30
2018-12-04T09:52:37.986Z,96.70
2018-12-04T10:00:02.059Z,93.40
2018-12-04T10:02:30.346Z,93.70
2018-12-04T10:04:58.497Z,94.20
2018-12-04T10:07:26.706Z,93.40
2018-12-04T10:10:00.459Z,94.00
2018-12-04T10:12:25.178Z,93.00
2018-12-04T10:14:53.381Z,93.10
2018-12-04T10:17:21.726Z,92.80
2018-12-04T10:19:49.937Z,92.90
2018-12-04T10:22:18.164Z,92.70
2018-12-04T10:24:46.402Z,91.30
2018-12-04T10:27:14.600Z,92.20
2018-12-04T10:29:42.882Z,93.40
2018-12-04T10:32:11.084Z,92.80
2018-12-04T10:34:39.310Z,93.50
2018-12-04T10:37:07.585Z,93.80
2018-12-04T10:39:35.798Z,92.70
2018-12-04T10:42:04.067Z,92.20
2018-12-04T10:44:32.300Z,90.80
2018-12-04T10:47:00.603Z,91.30
2018-12-04T10:49:28.805Z,91.40
2018-12-04T10:51:57.035Z,98.30
2018-12-04T10:54:25.316Z,92.20
2018-12-04T11:01:55.038Z,92.90
2018-12-04T11:04:23.242Z,93.70
2018-12-04T11:06:51.490Z,93.90
2018-12-04T11:09:19.684Z,93.40
2018-12-04T11:14:15.765Z,93.50
2018-12-04T11:16:43.932Z,94.20
2018-12-04T11:19:12.116Z,94.80
2018-12-04T11:21:40.339Z,94.90
2018-12-04T11:24:08.493Z,95.00
2018-12-04T11:26:36.681Z,95.10
2018-12-04T11:29:04.864Z,94.70
2018-12-04T11:31:33.014Z,95.00
2018-12-04T11:34:01.249Z,95.10
2018-12-04T11:36:29.413Z,95.50
2018-12-04T11:38:57.570Z,94.90
2018-12-04T11:41:25.834Z,94.90
2018-12-04T11:43:53.996Z,95.50
2018-12-04T11:46:22.184Z,95.60
2018-12-04T11:48:50.347Z,99.90
2018-12-04T11:51:18.492Z,95.20
2018-12-04T11:53:46.682Z,95.20
2018-12-04T11:56:14.827Z,94.60
2018-12-04T11:58:43.077Z,94.90
2018-12-04T12:01:13.197Z,94.40
2018-12-04T12:03:41.378Z,94.60
2018-12-04T12:06:09.513Z,95.00
2018-12-04T12:08:37.689Z,95.00
2018-12-04T12:11:05.827Z,95.00
2018-12-04T12:13:34.018Z,95.20
2018-12-04T12:16:02.157Z,95.30
2018-12-04T12:18:30.316Z,95.10
2018-12-04T12:20:58.489Z,95.20
2018-12-04T12:23:26.635Z,95.40
2018-12-04T12:25:54.894Z,94.70
2018-12-04T12:28:23.053Z,94.50
2018-12-04T12:30:51.306Z,94.90
2018-12-04T12:33:19.491Z,95.30
2018-12-04T12:35:47.691Z,95.00
2018-12-04T12:38:15.855Z,94.80
2018-12-04T12:40:44.087Z,95.20
2018-12-04T12:43:12.239Z,95.50
2018-12-04T12:45:40.393Z,96.10
2018-12-04T12:48:15.445Z,94.60
2018-12-04T12:50:43.632Z,99.50
2018-12-04T12:53:11.828Z,99.90
2018-12-04T12:55:39.972Z,94.00
2018-12-04T12:58:08.120Z,94.00
2018-12-04T13:00:36.293Z,94.40
2018-12-04T13:03:04.488Z,94.40
2018-12-04T13:05:32.638Z,94.60
2018-12-04T13:08:00.809Z,94.30
2018-12-04T13:10:28.993Z,94.20
2018-12-04T13:12:57.175Z,94.50
2018-12-04T13:15:25.317Z,94.60
2018-12-04T13:17:53.474Z,94.30
2018-12-04T13:22:49.675Z,93.30
2018-12-04T13:25:17.820Z,93.60
2018-12-04T13:27:46.010Z,93.40
2018-12-04T13:30:14.181Z,93.70
2018-12-04T13:32:42.368Z,93.80
2018-12-04T13:35:10.512Z,93.40
2018-12-04T13:37:38.694Z,93.80
2018-12-04T13:40:08.741Z,93.60
2018-12-04T13:42:43.490Z,93.50
2018-12-04T13:45:11.643Z,94.00
2018-12-04T13:47:39.865Z,93.80
2018-12-04T13:50:08.035Z,94.00
2018-12-04T13:52:36.281Z,94.10
2018-12-04T13:55:04.654Z,99.90
2018-12-04T13:57:32.890Z,99.90
2018-12-04T14:00:01.063Z,97.70
2018-12-04T14:02:29.274Z,99.90
2018-12-04T14:04:57.452Z,94.00
2018-12-04T14:09:53.730Z,93.80
2018-12-04T14:12:22.026Z,94.40
2018-12-04T14:14:50.326Z,94.30
2018-12-04T14:17:18.635Z,94.80
2018-12-04T14:19:46.946Z,95.00
2018-12-04T14:22:16.279Z,94.80
2018-12-04T14:24:44.659Z,94.70
2018-12-04T14:27:13.050Z,94.60
2018-12-04T14:29:41.324Z,93.70
2018-12-04T14:32:09.603Z,93.90
2018-12-04T14:34:37.863Z,93.80
2018-12-04T14:37:06.205Z,93.50
2018-12-04T14:39:34.555Z,93.80
2018-12-04T14:42:02.872Z,93.50
2018-12-04T14:44:31.207Z,93.80
2018-12-04T14:46:59.456Z,93.50
2018-12-04T14:49:27.758Z,93.70
2018-12-04T14:51:56.029Z,94.00
2018-12-04T14:54:24.245Z,94.00
2018-12-04T14:56:52.532Z,99.90
2018-12-04T14:59:20.748Z,93.40
2018-12-04T15:01:49.081Z,95.30
2018-12-04T15:04:17.353Z,99.90
2018-12-04T15:09:13.576Z,96.50
2018-12-04T15:11:41.897Z,93.90
2018-12-04T15:14:10.173Z,94.30
2018-12-04T15:16:38.452Z,93.90
2018-12-04T15:19:06.754Z,94.20
2018-12-04T15:21:34.976Z,94.20
2018-12-04T15:24:03.210Z,94.40
2018-12-04T15:26:31.519Z,94.30
2018-12-04T15:28:59.883Z,93.50
2018-12-04T15:31:28.180Z,93.50
2018-12-04T15:33:56.386Z,93.60
2018-12-04T15:36:24.583Z,93.10
2018-12-04T15:38:52.918Z,93.00
2018-12-04T15:41:21.279Z,93.00
2018-12-04T15:43:49.545Z,93.00
2018-12-04T15:46:17.735Z,92.70
2018-12-04T15:48:45.957Z,92.80
2018-12-04T15:51:14.307Z,93.00
2018-12-04T15:53:43.069Z,92.90
2018-12-04T15:56:11.262Z,93.00
2018-12-04T15:58:39.483Z,93.10
2018-12-04T16:01:10.965Z,92.80
2018-12-04T16:03:39.172Z,99.90
2018-12-04T16:06:07.393Z,93.20
2018-12-04T16:08:35.546Z,99.00
2018-12-04T16:11:03.701Z,93.50
2018-12-04T16:13:31.845Z,93.50
2018-12-04T16:16:00.009Z,93.40
2018-12-04T16:18:28.263Z,93.60
2018-12-04T16:20:56.451Z,93.90
2018-12-04T16:23:24.597Z,94.00
2018-12-04T16:25:52.791Z,94.30
2018-12-04T16:28:20.988Z,94.40
2018-12-04T16:30:49.149Z,94.90
2018-12-04T16:33:17.295Z,95.10
2018-12-04T16:35:45.462Z,95.00
2018-12-04T16:38:13.617Z,95.00
2018-12-04T16:40:41.824Z,95.10
2018-12-04T16:43:10.054Z,95.40
2018-12-04T16:45:38.225Z,95.40
2018-12-04T16:48:06.377Z,95.50
2018-12-04T16:50:34.526Z,95.60
2018-12-04T16:53:02.780Z,95.40
2018-12-04T16:55:31.012Z,95.30
2018-12-04T16:57:59.161Z,95.20
2018-12-04T17:00:27.327Z,95.30
2018-12-04T17:02:55.475Z,99.90
2018-12-04T17:05:23.668Z,99.90
2018-12-04T17:07:51.933Z,99.90
2018-12-04T17:10:22.654Z,94.80
2018-12-04T17:12:53.377Z,94.80
2018-12-04T17:17:49.535Z,94.70
2018-12-04T17:20:17.739Z,95.00
2018-12-04T17:22:46.040Z,95.10
2018-12-04T17:25:14.327Z,95.10
2018-12-04T17:27:49.282Z,95.30
2018-12-04T17:30:17.865Z,94.90
2018-12-04T17:32:46.477Z,95.30
2018-12-04T17:35:14.674Z,95.20
2018-12-04T17:37:42.869Z,95.00
2018-12-04T17:40:11.171Z,95.00
2018-12-04T17:42:39.361Z,95.00
2018-12-04T17:45:07.562Z,95.40
2018-12-04T17:47:35.774Z,95.20
2018-12-04T17:50:04.377Z,95.30
2018-12-04T17:52:32.580Z,95.00
2018-12-04T17:55:00.799Z,95.00
2018-12-04T17:57:28.997Z,94.90
2018-12-04T17:59:57.275Z,94.80
2018-12-04T18:02:25.554Z,95.00
2018-12-04T18:04:53.742Z,94.90
2018-12-04T18:07:21.956Z,94.70
2018-12-04T18:09:50.158Z,99.90
2018-12-04T18:12:18.365Z,94.80
2018-12-04T18:14:46.597Z,95.00
2018-12-04T18:22:10.930Z,94.90
2018-12-04T18:24:39.139Z,95.50
2018-12-04T18:27:07.345Z,95.20
2018-12-04T18:29:35.551Z,95.50
2018-12-04T18:32:03.853Z,95.50
2018-12-04T18:34:32.070Z,95.70
2018-12-04T18:37:00.287Z,95.30
2018-12-04T18:39:28.517Z,95.20
2018-12-04T18:41:56.730Z,94.90
2018-12-04T18:44:24.928Z,94.80
2018-12-04T18:46:53.184Z,95.10
2018-12-04T18:49:21.394Z,95.20
2018-12-04T18:51:49.635Z,95.30
2018-12-04T18:54:17.833Z,95.10
2018-12-04T18:56:46.058Z,95.10
2018-12-04T18:59:14.321Z,95.40
2018-12-04T19:01:42.513Z,95.40
2018-12-04T19:04:10.757Z,95.30
2018-12-04T19:06:38.985Z,95.00
2018-12-04T19:09:07.756Z,98.30
2018-12-04T19:11:42.641Z,99.90
2018-12-04T19:14:10.837Z,96.80
2018-12-04T19:16:39.115Z,94.70
2018-12-04T19:19:07.350Z,94.80
2018-12-04T19:21:35.552Z,97.80
2018-12-04T19:24:03.797Z,94.80
2018-12-04T19:26:32.103Z,95.10
2018-12-04T19:29:00.316Z,95.10
2018-12-04T19:31:28.535Z,94.90
2018-12-04T19:33:56.766Z,95.00
2018-12-04T19:36:24.964Z,95.00
2018-12-04T19:38:53.179Z,95.00
2018-12-04T19:41:21.411Z,95.00
2018-12-04T19:43:56.272Z,95.60
2018-12-04T19:46:19.957Z,95.10
2018-12-04T19:49:51.453Z,95.10
2018-12-04T19:54:47.740Z,94.80
2018-12-04T19:57:15.926Z,95.30
2018-12-04T19:59:44.138Z,95.20
2018-12-04T20:02:12.376Z,95.30
2018-12-04T20:04:40.558Z,95.30
2018-12-04T20:07:08.830Z,95.30
2018-12-04T20:09:37.040Z,94.70
2018-12-04T20:12:05.371Z,94.90
2018-12-04T20:14:33.585Z,94.90
2018-12-04T20:17:01.795Z,94.90
2018-12-04T20:19:30.021Z,95.00
2018-12-04T20:21:58.301Z,95.00
2018-12-04T20:24:26.503Z,95.10
2018-12-04T20:26:54.947Z,94.90
2018-12-04T20:29:23.219Z,95.20
2018-12-04T20:31:51.503Z,95.20
2018-12-04T20:34:19.783Z,95.10
2018-12-04T20:36:47.969Z,95.00
2018-12-04T20:39:16.958Z,99.90
2018-12-04T20:41:45.723Z,94.80
2018-12-04T20:44:14.014Z,99.90
2018-12-04T20:46:42.345Z,96.70
2018-12-04T20:49:12.308Z,99.90
2018-12-04T20:51:40.905Z,98.70
2018-12-04T20:54:09.410Z,95.10
2018-12-04T20:56:37.982Z,95.30
2018-12-04T20:59:06.288Z,95.20
2018-12-04T21:01:34.661Z,95.30
2018-12-04T21:04:02.870Z,95.20
2018-12-04T21:06:31.071Z,95.30
2018-12-04T21:08:59.345Z,94.90
2018-12-04T21:11:27.622Z,95.30
2018-12-04T21:13:55.913Z,95.30
2018-12-04T21:16:24.156Z,95.40
2018-12-04T21:18:52.679Z,95.50
2018-12-04T21:21:20.901Z,95.40
2018-12-04T21:23:49.189Z,95.30
2018-12-04T21:26:17.405Z,95.20
2018-12-04T21:28:51.112Z,95.30
2018-12-04T21:31:24.848Z,95.30
2018-12-04T21:33:58.682Z,95.30
2018-12-04T21:36:32.588Z,95.30
2018-12-04T21:39:06.468Z,95.20
2018-12-04T21:41:40.373Z,94.80
2018-12-04T21:44:13.884Z,99.90
2018-12-04T21:51:43.678Z,95.20
2018-12-04T21:54:11.909Z,95.70
2018-12-04T21:56:40.125Z,95.70
2018-12-04T21:59:08.383Z,95.50
2018-12-04T22:01:36.626Z,95.30
2018-12-04T22:04:04.853Z,95.50
2018-12-04T22:06:33.057Z,95.40
2018-12-04T22:09:01.345Z,95.20
2018-12-04T22:11:29.541Z,95.20
2018-12-04T22:13:57.752Z,95.30
2018-12-04T22:16:25.995Z,95.60
2018-12-04T22:18:54.252Z,95.80
2018-12-04T22:21:22.552Z,95.20
2018-12-04T22:23:51.197Z,95.00
2018-12-04T22:26:19.510Z,95.30
2018-12-04T22:28:47.709Z,95.30
2018-12-04T22:31:15.922Z,95.30
2018-12-04T22:33:44.210Z,95.10
2018-12-04T22:36:12.442Z,94.80
2018-12-04T22:38:40.634Z,99.90
2018-12-04T22:41:08.832Z,94.90
2018-12-04T22:43:37.074Z,94.90
2018-12-04T22:46:05.296Z,95.00
2018-12-04T22:48:33.508Z,99.90
2018-12-04T22:53:29.696Z,94.90
2018-12-04T22:55:57.938Z,95.40
2018-12-04T22:58:26.212Z,94.80
2018-12-04T23:00:54.575Z,94.70
2018-12-04T23:03:22.854Z,94.60
2018-12-04T23:05:51.095Z,94.90
2018-12-04T23:08:19.349Z,94.80
2018-12-04T23:10:47.571Z,94.80
2018-12-04T23:13:15.885Z,94.70
2018-12-04T23:15:44.093Z,94.80
2018-12-04T23:18:12.530Z,94.70
2018-12-04T23:20:40.748Z,94.60
2018-12-04T23:23:09.058Z,94.60
2018-12-04T23:25:37.277Z,94.50
2018-12-04T23:28:05.565Z,94.60
2018-12-04T23:30:33.810Z,94.60
2018-12-04T23:33:02.048Z,94.60
2018-12-04T23:35:30.250Z,94.20
2018-12-04T23:37:58.490Z,94.30
2018-12-04T23:40:26.689Z,94.10
2018-12-04T23:42:54.898Z,99.90
2018-12-04T23:45:23.201Z,94.30
2018-12-04T23:47:51.408Z,94.40
2018-12-04T23:50:19.654Z,94.70
2018-12-04T23:52:47.862Z,94.70
2018-12-04T23:55:16.110Z,94.80
2018-12-04T23:57:44.319Z,94.90
